Time;durP1;ratioP1;P1;durP2;ratioP2;P2;SDS_P1;SDS_P2;PMS_P1;PMS_P2;Temp;Humidity;BMP_temperature;BMP_pressure;BME280_temperature;BME280_humidity;BME280_pressure;Samples;Min_cycle;Max_cycle;Signal;HPM_P1;HPM_P2
2023/10/11 00:01:10;;;;;;;12.47;7.57;;;19.40;55.20;;;;;;5022535;28;20856;-45
2023/10/11 00:03:35;;;;;;;15.23;8.70;;;19.40;54.90;;;;;;5024349;28;20260;-46
2023/10/11 00:06:04;;;;;;;14.50;8.30;;;19.30;55.10;;;;;;5030452;28;20193;-45
2023/10/11 00:08:39;;;;;;;15.70;9.33;;;19.30;55.30;;;;;;5029241;28;20189;-47
2023/10/11 00:11:07;;;;;;;15.70;9.00;;;19.20;55.40;;;;;;5028805;28;20490;-45
2023/10/11 00:13:35;;;;;;;13.33;7.87;;;19.30;55.20;;;;;;5020794;28;20647;-45
2023/10/11 00:16:09;;;;;;;14.60;8.70;;;19.40;55.20;;;;;;5022379;28;20448;-47
2023/10/11 00:18:36;;;;;;;15.73;7.50;;;19.40;55.20;;;;;;5022525;28;20451;-46
2023/10/11 00:21:12;;;;;;;16.50;8.47;;;19.50;54.70;;;;;;5028851;28;20497;-46
2023/10/11 00:23:46;;;;;;;16.10;8.13;;;19.40;54.70;;;;;;5026751;28;20454;-46
2023/10/11 00:26:14;;;;;;;13.30;7.80;;;19.20;55.10;;;;;;5027705;28;20448;-46
2023/10/11 00:28:40;;;;;;;14.77;7.87;;;19.30;55.40;;;;;;5018993;28;20442;-47
2023/10/11 00:31:13;;;;;;;14.53;8.97;;;19.30;54.90;;;;;;5025855;28;20484;-45
2023/10/11 00:33:39;;;;;;;20.23;8.20;;;19.40;54.80;;;;;;5027469;28;20662;-45
2023/10/11 00:36:05;;;;;;;12.97;8.57;;;19.40;54.90;;;;;;5025126;28;20541;-46
2023/10/11 00:38:32;;;;;;;15.03;8.77;;;19.40;54.80;;;;;;5027111;28;20688;-46
2023/10/11 00:41:06;;;;;;;13.17;7.70;;;19.40;54.60;;;;;;5027610;28;20890;-46
2023/10/11 00:43:47;;;;;;;12.67;8.37;;;19.20;55.10;;;;;;5024417;28;20452;-46
2023/10/11 00:46:14;;;;;;;15.33;8.03;;;19.20;55.20;;;;;;5024434;28;20456;-50
2023/10/11 00:49:03;;;;;;;12.40;8.07;;;19.20;54.70;;;;;;5015899;28;20452;-49
2023/10/11 00:51:30;;;;;;;12.20;7.90;;;19.30;54.80;;;;;;5026237;28;20492;-50
2023/10/11 00:53:56;;;;;;;14.80;7.50;;;19.40;54.80;;;;;;5026374;28;20817;-48
2023/10/11 00:56:26;;;;;;;13.53;8.13;;;19.40;54.80;;;;;;5022774;28;21131;-50
2023/10/11 00:58:52;;;;;;;15.27;7.50;;;19.50;55.10;;;;;;5024780;28;20467;-51
2023/10/11 01:01:18;;;;;;;11.60;7.80;;;19.50;54.60;;;;;;5024336;28;20974;-50
2023/10/11 01:03:44;;;;;;;16.30;8.20;;;19.50;54.70;;;;;;5018069;28;20465;-49
2023/10/11 01:06:12;;;;;;;15.73;8.33;;;19.50;54.00;;;;;;5019397;28;20451;-47
2023/10/11 01:08:39;;;;;;;12.93;7.90;;;19.30;54.50;;;;;;5023272;28;20797;-49
2023/10/11 01:11:11;;;;;;;15.43;8.60;;;19.10;54.90;;;;;;5021865;28;20993;-46
2023/10/11 01:13:40;;;;;;;13.17;7.87;;;18.80;55.60;;;;;;5019178;28;20448;-50
2023/10/11 01:16:14;;;;;;;12.40;7.33;;;18.50;56.40;;;;;;5028973;28;20472;-50
2023/10/11 01:18:41;;;;;;;15.43;9.57;;;18.40;56.50;;;;;;5024293;28;20539;-51
2023/10/11 01:21:07;;;;;;;14.50;8.93;;;18.20;57.00;;;;;;5020250;28;20468;-46
2023/10/11 01:23:34;;;;;;;13.20;7.87;;;17.90;57.50;;;;;;5019764;28;20484;-50
2023/10/11 01:26:06;;;;;;;13.43;7.83;;;17.80;57.90;;;;;;5019700;28;20494;-46
2023/10/11 01:28:42;;;;;;;13.37;7.70;;;17.70;58.60;;;;;;5023378;28;20460;-50
2023/10/11 01:31:09;;;;;;;12.60;8.50;;;18.00;58.40;;;;;;5023114;28;20487;-46
2023/10/11 01:33:42;;;;;;;12.47;7.43;;;18.30;57.50;;;;;;5021231;28;22319;-50
2023/10/11 01:36:10;;;;;;;11.63;7.53;;;18.60;56.80;;;;;;5022685;28;20522;-51
2023/10/11 01:38:47;;;;;;;18.87;7.67;;;18.60;56.30;;;;;;5020250;28;20445;-51
2023/10/11 01:41:19;;;;;;;13.10;7.13;;;18.70;55.70;;;;;;5025488;28;20525;-51
2023/10/11 01:43:46;;;;;;;13.33;7.30;;;18.50;56.00;;;;;;5014026;28;20954;-46
2023/10/11 01:46:13;;;;;;;12.57;7.70;;;18.50;56.30;;;;;;5026244;28;20440;-48
2023/10/11 01:48:38;;;;;;;10.80;7.00;;;18.50;56.50;;;;;;5018189;28;20453;-45
2023/10/11 01:51:09;;;;;;;13.73;6.73;;;18.60;56.40;;;;;;5024531;28;20487;-49
2023/10/11 01:53:35;;;;;;;12.03;7.70;;;18.50;56.30;;;;;;5027099;28;20295;-48
2023/10/11 01:56:02;;;;;;;16.23;8.07;;;18.70;55.90;;;;;;5023938;28;20444;-46
2023/10/11 01:58:27;;;;;;;10.73;6.73;;;18.80;55.80;;;;;;5023443;28;20449;-48
2023/10/11 02:00:53;;;;;;;11.73;7.53;;;18.90;55.50;;;;;;5031407;28;20436;-51
2023/10/11 02:03:19;;;;;;;14.90;9.60;;;19.00;55.30;;;;;;5028291;28;20189;-46
2023/10/11 02:05:44;;;;;;;11.73;7.73;;;19.10;54.70;;;;;;5031322;28;20566;-45
2023/10/11 02:08:12;;;;;;;13.33;6.80;;;19.10;54.20;;;;;;5027937;28;20200;-45
2023/10/11 02:10:38;;;;;;;14.93;7.70;;;19.00;54.90;;;;;;5033329;28;20237;-46
2023/10/11 02:13:06;;;;;;;14.87;7.23;;;19.10;55.10;;;;;;5029706;28;20440;-46
2023/10/11 02:15:34;;;;;;;12.87;7.07;;;19.10;54.90;;;;;;5029927;28;20812;-46
2023/10/11 02:18:07;;;;;;;14.67;8.60;;;19.10;54.90;;;;;;5026618;28;20444;-46
2023/10/11 02:20:32;;;;;;;16.67;8.40;;;19.20;54.70;;;;;;5028348;28;20519;-46
2023/10/11 02:22:59;;;;;;;12.50;7.30;;;19.20;54.70;;;;;;5030106;28;20476;-46
2023/10/11 02:25:25;;;;;;;13.40;8.40;;;19.10;54.80;;;;;;5032347;28;20201;-45
2023/10/11 02:27:53;;;;;;;21.33;8.23;;;19.10;54.50;;;;;;5029911;28;20532;-46
2023/10/11 02:30:25;;;;;;;9.97;7.03;;;19.10;54.40;;;;;;5025555;28;20488;-48
2023/10/11 02:32:52;;;;;;;11.40;7.20;;;19.10;54.70;;;;;;5030351;28;20495;-48
2023/10/11 02:35:19;;;;;;;14.93;6.50;;;19.10;54.70;;;;;;5019184;28;20472;-46
2023/10/11 02:37:48;;;;;;;17.23;7.63;;;19.00;55.10;;;;;;5030857;28;20432;-45
2023/10/11 02:40:16;;;;;;;10.67;6.90;;;19.00;55.00;;;;;;5027354;28;20487;-46
2023/10/11 02:42:49;;;;;;;13.23;8.43;;;18.90;55.20;;;;;;5030786;28;20985;-47
2023/10/11 02:45:19;;;;;;;14.90;9.20;;;18.90;55.30;;;;;;5026050;28;20440;-45
2023/10/11 02:47:45;;;;;;;15.10;7.67;;;19.10;54.40;;;;;;5029452;28;20817;-46
2023/10/11 02:50:11;;;;;;;14.57;8.63;;;19.10;54.30;;;;;;5024862;28;20934;-48
2023/10/11 02:52:37;;;;;;;13.53;7.40;;;19.20;54.10;;;;;;5028819;28;20451;-46
2023/10/11 02:55:16;;;;;;;15.43;8.30;;;19.30;53.90;;;;;;5028145;28;20219;-46
2023/10/11 02:57:42;;;;;;;12.10;7.30;;;19.30;53.90;;;;;;5023932;28;20207;-46
2023/10/11 03:00:21;;;;;;;12.20;7.30;;;19.30;53.80;;;;;;5024380;28;20444;-45
2023/10/11 03:02:54;;;;;;;11.23;7.73;;;19.30;54.20;;;;;;5029257;28;20456;-46
2023/10/11 03:05:29;;;;;;;11.30;6.33;;;19.10;54.30;;;;;;5028742;28;20846;-45
2023/10/11 03:08:14;;;;;;;15.30;7.43;;;19.10;54.30;;;;;;5025660;28;20539;-45
2023/10/11 03:10:44;;;;;;;14.37;7.57;;;19.10;54.30;;;;;;5030643;28;20491;-46
2023/10/11 03:13:23;;;;;;;13.87;7.20;;;19.10;54.30;;;;;;5026567;28;20456;-51
2023/10/11 03:15:55;;;;;;;11.57;7.30;;;19.00;54.80;;;;;;5018567;28;20452;-46
2023/10/11 03:18:25;;;;;;;13.23;6.77;;;18.80;54.50;;;;;;5028080;28;20435;-45
2023/10/11 03:20:58;;;;;;;12.93;7.13;;;18.80;54.90;;;;;;5020955;28;20836;-46
2023/10/11 03:23:27;;;;;;;9.93;6.50;;;18.70;54.80;;;;;;5017606;28;20967;-46
2023/10/11 03:25:54;;;;;;;13.43;7.23;;;18.50;55.30;;;;;;5022475;28;20451;-48
2023/10/11 03:28:26;;;;;;;9.63;7.27;;;18.60;55.50;;;;;;5021302;28;20443;-47
2023/10/11 03:30:53;;;;;;;10.80;7.30;;;18.50;55.60;;;;;;5024775;28;20860;-48
2023/10/11 03:33:18;;;;;;;11.83;7.33;;;18.50;55.80;;;;;;5022134;28;20444;-46
2023/10/11 03:35:45;;;;;;;11.10;6.80;;;18.60;55.70;;;;;;5023932;28;20444;-47
2023/10/11 03:38:17;;;;;;;17.13;6.60;;;18.70;55.50;;;;;;5015713;28;20210;-47
2023/10/11 03:41:07;;;;;;;12.03;7.10;;;18.50;55.50;;;;;;5018440;28;20807;-48
2023/10/11 03:43:33;;;;;;;11.30;7.13;;;18.60;55.90;;;;;;5020002;28;20451;-46
2023/10/11 03:46:01;;;;;;;12.50;7.33;;;18.80;55.10;;;;;;5032369;28;21103;-44
2023/10/11 03:48:28;;;;;;;12.30;5.90;;;18.60;54.60;;;;;;5027284;28;20240;-45
2023/10/11 03:50:57;;;;;;;12.40;7.10;;;18.30;54.90;;;;;;5019994;28;20896;-47
2023/10/11 03:53:22;;;;;;;10.33;6.63;;;18.10;55.40;;;;;;5020065;28;20455;-47
2023/10/11 03:55:49;;;;;;;15.43;6.67;;;17.90;56.00;;;;;;5017776;28;20449;-45
2023/10/11 04:03:41;;;;;;;10.53;6.30;;;17.40;57.00;;;;;;5026459;28;20863;-51
2023/10/11 04:06:14;;;;;;;11.30;7.00;;;17.40;57.10;;;;;;5027524;28;20535;-51
2023/10/11 04:08:44;;;;;;;11.93;6.73;;;17.50;57.10;;;;;;5028413;28;20247;-52
2023/10/11 04:11:22;;;;;;;10.83;6.80;;;17.60;57.00;;;;;;5018362;28;20494;-51
2023/10/11 04:13:49;;;;;;;15.33;7.00;;;17.40;57.80;;;;;;5016369;28;20943;-49
2023/10/11 04:16:18;;;;;;;11.33;6.80;;;17.20;57.70;;;;;;5026800;28;20444;-50
2023/10/11 04:18:44;;;;;;;13.10;7.10;;;17.10;58.00;;;;;;5026024;28;21872;-49
2023/10/11 04:23:36;;;;;;;11.43;6.83;;;17.20;57.90;;;;;;5027448;28;20446;-50
2023/10/11 04:26:23;;;;;;;13.90;8.13;;;17.20;57.80;;;;;;5025522;28;20442;-50
2023/10/11 04:28:51;;;;;;;11.17;7.80;;;17.30;57.60;;;;;;5020823;28;20197;-49
2023/10/11 04:31:54;;;;;;;12.80;7.33;;;17.40;57.30;;;;;;5023442;28;20535;-50
2023/10/11 04:34:14;;;;;;;13.07;7.53;;;17.50;57.10;;;;;;5027654;28;20448;-47
2023/10/11 04:36:42;;;;;;;14.10;7.93;;;17.40;57.50;;;;;;5027309;28;20454;-50
2023/10/11 04:39:15;;;;;;;12.43;7.07;;;17.40;57.60;;;;;;5029623;28;20598;-49
2023/10/11 04:41:49;;;;;;;10.33;7.70;;;17.30;57.90;;;;;;5026024;28;20530;-49
2023/10/11 04:44:17;;;;;;;10.50;6.80;;;17.30;57.70;;;;;;5023597;28;20566;-51
2023/10/11 04:46:44;;;;;;;16.07;7.27;;;17.20;57.90;;;;;;5039024;28;20943;-45
2023/10/11 04:49:18;;;;;;;11.80;6.67;;;17.00;58.50;;;;;;5026976;28;20848;-49
2023/10/11 04:51:46;;;;;;;13.23;7.97;;;16.80;59.00;;;;;;5022539;28;20622;-51
2023/10/11 04:54:17;;;;;;;11.70;6.87;;;16.80;59.10;;;;;;5024865;28;20570;-49
2023/10/11 04:59:11;;;;;;;11.87;6.30;;;16.80;59.00;;;;;;5022246;28;20439;-46
2023/10/11 05:01:58;;;;;;;14.40;7.87;;;16.80;59.10;;;;;;5023841;28;20459;-45
2023/10/11 05:04:32;;;;;;;9.87;6.60;;;16.90;58.70;;;;;;5020081;28;20439;-47
2023/10/11 05:07:07;;;;;;;12.57;6.97;;;16.80;58.90;;;;;;5028834;28;20574;-46
2023/10/11 05:09:39;;;;;;;12.10;6.60;;;16.90;58.80;;;;;;5025701;28;20807;-48
2023/10/11 05:19:40;;;;;;;17.20;6.73;;;16.90;59.10;;;;;;5024457;28;20451;-46
2023/10/11 05:22:08;;;;;;;13.93;7.40;;;17.20;62.10;;;;;;5022538;28;20572;-52
2023/10/11 05:25:12;;;;;;;12.67;6.23;;;17.50;60.60;;;;;;5024405;28;20471;-48
2023/10/11 05:35:53;;;;;;;11.80;6.37;;;18.60;56.10;;;;;;5023035;28;20483;-46
2023/10/11 05:52:14;;;;;;;12.00;7.00;;;18.90;54.40;;;;;;5024426;28;20459;-46
2023/10/11 05:54:40;;;;;;;8.80;6.70;;;18.90;54.20;;;;;;5029737;28;20931;-46
2023/10/11 05:57:06;;;;;;;18.53;6.37;;;18.80;54.10;;;;;;5033919;28;20215;-46
2023/10/11 05:59:32;;;;;;;13.63;7.27;;;18.90;53.90;;;;;;5025635;28;20930;-46
2023/10/11 06:01:59;;;;;;;13.67;6.87;;;18.90;53.70;;;;;;5024167;28;20440;-46
2023/10/11 06:04:24;;;;;;;10.17;7.00;;;19.10;53.60;;;;;;5029867;28;20817;-45
2023/10/11 06:06:57;;;;;;;11.13;6.60;;;18.90;53.70;;;;;;5031595;28;20444;-46
2023/10/11 06:09:27;;;;;;;11.17;6.80;;;19.00;53.70;;;;;;5025087;28;20197;-45
2023/10/11 06:11:53;;;;;;;10.80;7.03;;;19.00;53.50;;;;;;5027301;28;20479;-45
2023/10/11 06:14:20;;;;;;;12.53;7.00;;;18.70;54.10;;;;;;5028252;28;20835;-46
2023/10/11 06:16:56;;;;;;;8.70;6.10;;;18.80;54.30;;;;;;5031729;28;20836;-45
2023/10/11 06:19:26;;;;;;;15.70;7.70;;;18.70;54.20;;;;;;5030730;28;20451;-47
2023/10/11 06:21:56;;;;;;;11.17;6.73;;;18.80;54.20;;;;;;5025804;28;20987;-48
2023/10/11 06:24:26;;;;;;;13.37;6.27;;;18.90;54.00;;;;;;5029076;28;20467;-47
2023/10/11 06:26:52;;;;;;;10.60;7.03;;;19.10;53.70;;;;;;5025223;28;20475;-47
2023/10/11 06:29:28;;;;;;;12.73;7.10;;;19.10;53.40;;;;;;5024388;28;20959;-46
2023/10/11 06:31:53;;;;;;;14.63;7.13;;;19.00;53.80;;;;;;5019603;28;20464;-48
2023/10/11 06:36:48;;;;;;;10.07;5.63;;;19.20;53.60;;;;;;5017047;28;20611;-45
2023/10/11 06:39:34;;;;;;;11.10;6.13;;;19.20;53.50;;;;;;5018516;28;20448;-46
2023/10/11 06:42:12;;;;;;;11.90;5.67;;;19.30;53.50;;;;;;5032784;28;20447;-46
2023/10/11 06:44:39;;;;;;;11.13;6.83;;;19.50;52.80;;;;;;5025133;28;20966;-46
2023/10/11 06:47:05;;;;;;;13.07;6.37;;;19.60;53.00;;;;;;5022479;28;20797;-45
2023/10/11 06:49:40;;;;;;;13.67;7.23;;;19.50;52.70;;;;;;5033805;28;20490;-46
2023/10/11 06:52:11;;;;;;;11.50;5.93;;;19.60;52.80;;;;;;5033692;28;20435;-46
2023/10/11 06:54:45;;;;;;;7.90;5.80;;;19.70;52.60;;;;;;5026218;28;20934;-46
2023/10/11 06:57:20;;;;;;;11.40;6.77;;;20.00;52.20;;;;;;5031173;28;20535;-46
2023/10/11 06:59:49;;;;;;;8.00;5.40;;;20.10;51.60;;;;;;5021497;28;20447;-46
2023/10/11 07:02:31;;;;;;;9.37;6.20;;;20.20;51.70;;;;;;5031114;28;20447;-45
2023/10/11 07:05:17;;;;;;;9.83;6.10;;;20.60;51.30;;;;;;5033315;28;21237;-46
2023/10/11 07:07:47;;;;;;;9.87;6.40;;;21.00;50.60;;;;;;5033266;28;20481;-45
2023/10/11 07:10:28;;;;;;;11.93;5.97;;;21.30;50.00;;;;;;5031691;28;20572;-46
2023/10/11 07:13:03;;;;;;;13.50;6.07;;;21.40;50.10;;;;;;5033055;28;20440;-47
2023/10/11 07:15:37;;;;;;;9.53;5.83;;;21.50;49.40;;;;;;5026872;28;20429;-51
2023/10/11 07:18:10;;;;;;;9.63;5.77;;;21.70;49.00;;;;;;5032253;28;21005;-51
2023/10/11 07:20:49;;;;;;;12.53;6.97;;;21.90;48.80;;;;;;5029971;28;20475;-50
2023/10/11 07:23:19;;;;;;;11.60;6.30;;;21.90;48.50;;;;;;5029564;28;20575;-50
2023/10/11 07:25:59;;;;;;;12.27;6.57;;;22.00;48.30;;;;;;5031718;28;20443;-51
2023/10/11 07:28:36;;;;;;;11.47;6.40;;;22.20;48.00;;;;;;5029567;28;20447;-51
2023/10/11 07:31:05;;;;;;;10.50;6.13;;;22.30;47.70;;;;;;5025130;28;20962;-50
2023/10/11 07:33:31;;;;;;;11.37;6.53;;;22.40;47.60;;;;;;5019871;28;20424;-50
2023/10/11 07:36:00;;;;;;;10.10;6.33;;;22.50;47.40;;;;;;5031340;28;20440;-46
2023/10/11 07:38:34;;;;;;;10.20;5.40;;;22.60;47.30;;;;;;5032908;28;20482;-46
2023/10/11 07:41:17;;;;;;;11.57;6.43;;;22.50;47.30;;;;;;5029137;28;20436;-47
2023/10/11 07:43:45;;;;;;;13.10;6.43;;;22.60;47.40;;;;;;5027084;28;20955;-49
2023/10/11 07:46:11;;;;;;;10.00;6.23;;;22.60;47.50;;;;;;5032375;28;20815;-46
2023/10/11 07:48:39;;;;;;;11.17;6.00;;;22.50;47.60;;;;;;5024906;28;20531;-50
2023/10/11 07:51:09;;;;;;;10.13;5.70;;;22.70;47.70;;;;;;5020780;28;20491;-46
2023/10/11 07:53:37;;;;;;;10.87;5.87;;;22.90;47.40;;;;;;5027542;28;20440;-51
2023/10/11 07:56:03;;;;;;;8.87;6.07;;;22.90;46.90;;;;;;5032372;28;20432;-51
2023/10/11 07:58:32;;;;;;;7.93;5.80;;;22.90;46.60;;;;;;5027493;28;20777;-49
2023/10/11 08:01:03;;;;;;;11.57;6.37;;;23.00;46.60;;;;;;5028380;28;20208;-50
2023/10/11 08:03:34;;;;;;;9.20;5.50;;;23.00;47.10;;;;;;5026348;28;20502;-49
2023/10/11 08:06:05;;;;;;;9.43;6.03;;;22.90;46.50;;;;;;5026432;28;20468;-49
2023/10/11 08:08:31;;;;;;;12.80;5.57;;;23.00;46.60;;;;;;5026975;28;20529;-49
2023/10/11 08:10:58;;;;;;;8.57;6.50;;;23.10;46.60;;;;;;5023583;28;20523;-46
2023/10/11 08:13:24;;;;;;;8.97;5.30;;;22.60;46.80;;;;;;5027893;28;20450;-51
2023/10/11 08:15:57;;;;;;;14.70;5.77;;;22.60;47.50;;;;;;5025084;28;20836;-47
2023/10/11 08:18:24;;;;;;;13.50;5.73;;;22.70;47.50;;;;;;5020981;28;20205;-47
2023/10/11 08:20:50;;;;;;;10.87;5.70;;;23.00;47.00;;;;;;5026378;28;20468;-47
2023/10/11 08:23:28;;;;;;;11.00;6.07;;;23.10;46.80;;;;;;5025425;28;20445;-51
2023/10/11 08:25:54;;;;;;;15.23;6.43;;;23.20;46.70;;;;;;5026205;28;20986;-49
2023/10/11 08:28:28;;;;;;;17.13;7.30;;;23.30;45.90;;;;;;5018911;28;22654;-46
2023/10/11 08:30:57;;;;;;;11.87;6.20;;;23.40;46.20;;;;;;5026065;28;20549;-46
2023/10/11 08:33:25;;;;;;;10.60;6.60;;;23.40;45.70;;;;;;5027982;28;20864;-47
2023/10/11 08:35:54;;;;;;;19.20;5.93;;;23.60;45.70;;;;;;5024098;28;20440;-47
2023/10/11 08:38:24;;;;;;;21.50;6.00;;;23.70;46.50;;;;;;5025289;28;20482;-48
2023/10/11 08:40:51;;;;;;;10.37;5.53;;;23.60;46.50;;;;;;5028551;28;20448;-48
2023/10/11 08:43:17;;;;;;;16.13;5.93;;;23.70;46.30;;;;;;5023331;28;20440;-51
2023/10/11 08:45:59;;;;;;;12.47;6.67;;;23.90;45.50;;;;;;5029438;28;20427;-47
2023/10/11 08:48:25;;;;;;;11.70;6.13;;;24.20;45.60;;;;;;5026479;28;20200;-47
2023/10/11 08:50:57;;;;;;;14.20;6.10;;;24.30;45.20;;;;;;5031345;28;20484;-46
2023/10/11 08:53:26;;;;;;;7.60;4.80;;;24.30;44.50;;;;;;5015487;28;20197;-47
2023/10/11 08:56:02;;;;;;;9.80;5.80;;;24.40;44.90;;;;;;5019032;28;20961;-48
2023/10/11 08:58:28;;;;;;;11.10;5.27;;;24.50;43.80;;;;;;5028623;28;20447;-46
2023/10/11 09:00:56;;;;;;;14.57;5.00;;;24.40;43.50;;;;;;5026063;28;20446;-49
2023/10/11 09:03:26;;;;;;;14.10;4.90;;;24.50;42.40;;;;;;5029753;28;20607;-47
2023/10/11 09:05:58;;;;;;;7.80;5.23;;;24.60;42.50;;;;;;5029501;28;20455;-46
2023/10/11 09:08:31;;;;;;;9.73;5.40;;;24.90;43.20;;;;;;5026942;28;20471;-48
2023/10/11 09:11:11;;;;;;;11.63;5.83;;;25.10;42.80;;;;;;5027649;28;20498;-48
2023/10/11 09:13:37;;;;;;;9.70;5.17;;;25.20;42.40;;;;;;5022147;28;20466;-46
2023/10/11 09:16:12;;;;;;;14.37;6.20;;;25.10;42.00;;;;;;5017472;28;20518;-48
2023/10/11 09:18:41;;;;;;;9.50;4.77;;;25.10;41.80;;;;;;5030112;28;20436;-49
2023/10/11 09:21:15;;;;;;;8.43;5.37;;;25.10;41.20;;;;;;5030934;28;20538;-48
2023/10/11 09:23:48;;;;;;;9.57;5.30;;;25.40;41.10;;;;;;5030293;28;20815;-46
2023/10/11 09:26:21;;;;;;;10.20;4.40;;;25.60;40.10;;;;;;5024531;28;20478;-51
2023/10/11 09:29:02;;;;;;;10.50;4.83;;;25.70;40.50;;;;;;5025609;28;20436;-47
2023/10/11 09:31:48;;;;;;;12.53;5.40;;;26.00;40.00;;;;;;5017203;28;20489;-50
2023/10/11 09:34:29;;;;;;;8.20;4.60;;;26.40;39.90;;;;;;5017812;28;20441;-47
2023/10/11 09:36:56;;;;;;;10.27;5.30;;;26.80;38.90;;;;;;5018110;28;20456;-47
2023/10/11 09:39:22;;;;;;;15.43;5.03;;;27.10;38.10;;;;;;5017204;28;20471;-50
2023/10/11 09:41:53;;;;;;;7.07;4.20;;;27.20;38.20;;;;;;5021604;28;20560;-46
2023/10/11 09:44:22;;;;;;;8.50;5.00;;;27.30;38.20;;;;;;5027896;28;20217;-48
2023/10/11 09:46:49;;;;;;;16.70;5.43;;;27.50;37.10;;;;;;5019276;28;20439;-49
2023/10/11 09:49:15;;;;;;;20.13;5.97;;;27.60;36.70;;;;;;5028663;28;20432;-46
2023/10/11 09:51:43;;;;;;;11.03;4.60;;;27.90;37.00;;;;;;5022024;28;20476;-48
2023/10/11 09:54:12;;;;;;;11.90;4.87;;;28.20;36.40;;;;;;5026117;28;20436;-47
2023/10/11 09:56:56;;;;;;;9.33;4.67;;;28.40;35.90;;;;;;5027354;28;20567;-47
2023/10/11 09:59:34;;;;;;;11.50;5.47;;;28.40;35.50;;;;;;5021189;28;20447;-48
2023/10/11 10:02:12;;;;;;;12.33;4.53;;;28.50;35.40;;;;;;5023568;28;21003;-46
2023/10/11 10:04:51;;;;;;;13.30;5.03;;;28.70;35.10;;;;;;5025890;28;20478;-50
2023/10/11 10:07:28;;;;;;;15.87;4.83;;;29.00;34.90;;;;;;5024092;28;20850;-46
2023/10/11 10:10:00;;;;;;;10.17;4.80;;;29.20;34.70;;;;;;5027475;28;20957;-47
2023/10/11 10:12:45;;;;;;;7.07;3.90;;;29.30;34.60;;;;;;5028397;28;20530;-47
2023/10/11 10:15:14;;;;;;;10.93;5.80;;;29.50;34.30;;;;;;5028388;28;20523;-47
2023/10/11 10:18:00;;;;;;;9.70;4.33;;;29.50;33.90;;;;;;5030168;28;20963;-47
2023/10/11 10:20:34;;;;;;;9.53;4.93;;;29.70;34.20;;;;;;5022013;28;20518;-47
2023/10/11 10:23:16;;;;;;;10.13;4.70;;;29.60;33.50;;;;;;5022848;28;20528;-47
2023/10/11 10:25:48;;;;;;;19.20;5.30;;;29.80;33.40;;;;;;5025522;28;20456;-47
2023/10/11 10:28:45;;;;;;;13.63;5.40;;;30.00;33.50;;;;;;5027674;28;20541;-47
2023/10/11 10:31:33;;;;;;;8.03;4.30;;;30.20;33.10;;;;;;5031706;28;20494;-50
2023/10/11 10:34:05;;;;;;;7.80;4.67;;;30.20;33.50;;;;;;5025261;28;20823;-47
2023/10/11 10:36:31;;;;;;;9.37;5.13;;;30.30;32.80;;;;;;5032153;28;20508;-49
2023/10/11 10:39:00;;;;;;;15.27;5.23;;;30.30;33.50;;;;;;5027097;28;20484;-47
2023/10/11 10:41:26;;;;;;;13.37;5.37;;;30.60;34.00;;;;;;5028234;28;20589;-47
2023/10/11 10:44:11;;;;;;;8.33;4.53;;;30.80;32.60;;;;;;5027782;28;20439;-48
2023/10/11 10:46:57;;;;;;;10.10;5.00;;;30.90;32.70;;;;;;5028518;28;20989;-47
2023/10/11 10:49:41;;;;;;;8.60;5.90;;;31.00;32.00;;;;;;5028179;28;20452;-47
2023/10/11 10:52:21;;;;;;;11.30;4.60;;;31.10;31.60;;;;;;5022598;28;20589;-47
2023/10/11 10:55:04;;;;;;;13.20;5.27;;;31.20;31.70;;;;;;5029938;28;20480;-48
2023/10/11 10:57:36;;;;;;;10.20;4.37;;;31.30;31.40;;;;;;5032579;28;20458;-47
2023/10/11 11:00:20;;;;;;;8.00;4.70;;;31.50;31.30;;;;;;5026640;28;20460;-48
2023/10/11 11:02:46;;;;;;;14.07;5.40;;;31.50;31.60;;;;;;5019821;28;20486;-47
2023/10/11 11:05:15;;;;;;;8.70;4.67;;;31.70;31.20;;;;;;5029751;28;20440;-48
2023/10/11 11:07:47;;;;;;;7.73;4.23;;;31.80;30.60;;;;;;5031771;28;20201;-47
2023/10/11 11:10:20;;;;;;;7.83;4.80;;;32.00;31.00;;;;;;5031413;28;20475;-49
2023/10/11 11:12:46;;;;;;;9.37;4.53;;;32.00;31.10;;;;;;5027282;28;20545;-47
2023/10/11 11:15:20;;;;;;;8.23;4.07;;;32.20;30.90;;;;;;5026961;28;20444;-47
2023/10/11 11:17:48;;;;;;;12.00;4.93;;;32.30;30.70;;;;;;5020351;28;20539;-47
2023/10/11 11:20:15;;;;;;;10.60;4.90;;;32.50;30.40;;;;;;5030604;28;20502;-47
2023/10/11 11:22:52;;;;;;;13.10;5.60;;;32.50;30.00;;;;;;5030440;28;20450;-47
2023/10/11 11:28:07;;;;;;;7.87;5.17;;;32.10;29.40;;;;;;5026206;28;20436;-47
2023/10/11 11:30:36;;;;;;;6.27;4.40;;;32.20;30.30;;;;;;5030336;28;20582;-47
2023/10/11 11:33:13;;;;;;;11.23;5.23;;;32.20;29.90;;;;;;5024302;28;20495;-47
2023/10/11 11:35:52;;;;;;;12.23;5.10;;;32.40;29.70;;;;;;5029680;28;20462;-47
2023/10/11 11:38:23;;;;;;;15.70;5.60;;;32.40;30.00;;;;;;5027920;28;20478;-48
2023/10/11 11:40:59;;;;;;;9.93;5.13;;;32.50;29.90;;;;;;5027975;28;20440;-48
2023/10/11 11:43:38;;;;;;;16.47;5.20;;;32.70;30.00;;;;;;5029750;28;20496;-47
2023/10/11 11:46:03;;;;;;;10.13;4.60;;;33.00;29.60;;;;;;5027419;28;20489;-48
2023/10/11 11:48:40;;;;;;;12.63;5.30;;;33.10;29.70;;;;;;5029342;28;20440;-50
2023/10/11 11:51:06;;;;;;;20.37;6.63;;;33.20;28.80;;;;;;5025179;28;20238;-48
2023/10/11 11:53:31;;;;;;;30.27;5.43;;;33.20;28.60;;;;;;5029723;28;20448;-48
2023/10/11 11:55:58;;;;;;;6.53;4.30;;;33.10;28.40;;;;;;5028205;28;20451;-47
2023/10/11 11:58:23;;;;;;;7.27;5.10;;;33.00;28.30;;;;;;5027156;28;20193;-48
2023/10/11 12:03:36;;;;;;;10.67;4.90;;;33.20;28.70;;;;;;5016223;28;20216;-50
2023/10/11 12:06:03;;;;;;;11.40;5.30;;;33.30;28.50;;;;;;5020161;28;20538;-47
2023/10/11 12:08:31;;;;;;;11.33;5.13;;;33.30;27.90;;;;;;5019676;28;20534;-48
2023/10/11 12:10:57;;;;;;;12.10;5.30;;;33.30;28.60;;;;;;5023272;28;20990;-49
2023/10/11 12:13:23;;;;;;;10.53;5.33;;;33.30;28.50;;;;;;5025290;28;20440;-50
2023/10/11 12:15:54;;;;;;;7.60;5.07;;;33.50;29.10;;;;;;5028527;28;20193;-48
2023/10/11 12:18:21;;;;;;;13.20;5.23;;;33.50;28.40;;;;;;5026179;28;20219;-48
2023/10/11 12:20:47;;;;;;;18.50;6.10;;;33.50;29.60;;;;;;5026656;28;20510;-49
2023/10/11 12:23:13;;;;;;;8.90;5.37;;;33.70;29.20;;;;;;5023495;28;20846;-48
2023/10/11 12:25:39;;;;;;;15.60;5.60;;;33.80;28.60;;;;;;5023530;28;20204;-49
2023/10/11 12:28:06;;;;;;;9.77;6.10;;;33.60;29.00;;;;;;5027599;28;20194;-47
2023/10/11 12:30:35;;;;;;;8.33;4.70;;;33.80;29.10;;;;;;5031630;28;20493;-50
2023/10/11 12:33:08;;;;;;;9.00;5.17;;;33.80;28.70;;;;;;5030285;28;20434;-47
2023/10/11 12:35:37;;;;;;;9.20;4.90;;;33.90;28.60;;;;;;5027126;28;20440;-50
2023/10/11 12:38:03;;;;;;;10.10;4.97;;;34.00;28.90;;;;;;5024895;28;20441;-47
2023/10/11 12:40:28;;;;;;;17.00;5.47;;;34.20;29.00;;;;;;5016816;28;20456;-49
2023/10/11 12:42:55;;;;;;;9.87;5.83;;;34.20;28.20;;;;;;5027281;28;20200;-48
2023/10/11 12:45:21;;;;;;;9.67;5.00;;;34.00;28.40;;;;;;5025819;28;20201;-48
2023/10/11 12:47:47;;;;;;;10.03;4.10;;;34.00;29.50;;;;;;5030272;28;20927;-51
2023/10/11 12:50:14;;;;;;;7.40;5.47;;;34.20;28.80;;;;;;5026816;28;20495;-47
2023/10/11 12:52:40;;;;;;;14.80;4.60;;;34.30;28.60;;;;;;5023462;28;20230;-53
2023/10/11 12:55:07;;;;;;;7.27;4.80;;;34.30;28.40;;;;;;5028642;28;20440;-49
2023/10/11 12:57:39;;;;;;;8.97;4.10;;;34.30;28.50;;;;;;5024557;28;20444;-49
2023/10/11 13:00:28;;;;;;;7.57;4.30;;;34.30;29.10;;;;;;5028019;28;20448;-48
2023/10/11 13:02:58;;;;;;;9.33;5.17;;;34.50;28.80;;;;;;5028646;28;20451;-49
2023/10/11 13:05:27;;;;;;;9.40;4.63;;;34.60;28.50;;;;;;5024358;28;20436;-49
2023/10/11 13:07:54;;;;;;;8.03;4.27;;;34.60;27.90;;;;;;5011491;28;20789;-51
2023/10/11 13:10:22;;;;;;;9.17;4.33;;;34.60;28.00;;;;;;5021231;28;20574;-49
2023/10/11 13:12:50;;;;;;;8.70;4.37;;;34.60;28.10;;;;;;5022088;28;20458;-51
2023/10/11 13:15:18;;;;;;;9.73;5.30;;;34.60;28.30;;;;;;5019256;28;20468;-52
2023/10/11 13:17:44;;;;;;;8.47;4.27;;;34.60;28.30;;;;;;5027630;28;20454;-51
2023/10/11 13:20:18;;;;;;;13.43;4.80;;;34.50;28.20;;;;;;5019673;28;20490;-53
2023/10/11 13:22:48;;;;;;;7.53;4.80;;;34.60;28.60;;;;;;5022414;28;20543;-52
2023/10/11 13:25:24;;;;;;;9.10;5.17;;;34.60;28.40;;;;;;5021873;28;20966;-47
2023/10/11 13:27:54;;;;;;;10.50;5.80;;;34.50;28.40;;;;;;5020781;28;20451;-52
2023/10/11 13:30:23;;;;;;;11.90;4.90;;;34.70;28.30;;;;;;5022609;28;20483;-49
2023/10/11 13:32:57;;;;;;;15.03;5.37;;;34.80;28.00;;;;;;5018061;28;20550;-48
2023/10/11 13:35:23;;;;;;;7.63;4.50;;;34.80;27.60;;;;;;5023584;28;20467;-49
2023/10/11 13:37:49;;;;;;;8.10;3.90;;;34.80;27.50;;;;;;5030387;28;20900;-51
2023/10/11 13:40:16;;;;;;;9.20;4.70;;;34.90;27.40;;;;;;5026390;28;20201;-52
2023/10/11 13:42:43;;;;;;;5.87;4.17;;;34.90;27.80;;;;;;5018665;28;20201;-49
2023/10/11 13:45:10;;;;;;;11.23;5.23;;;35.00;27.70;;;;;;5024727;28;20915;-49